Time;durP1;ratioP1;P1;durP2;ratioP2;P2;SDS_P1;SDS_P2;PMS_P1;PMS_P2;Temp;Humidity;BMP_temperature;BMP_pressure;BME280_temperature;BME280_humidity;BME280_pressure;Samples;Min_cycle;Max_cycle;Signal;HPM_P1;HPM_P2
2022/08/31 00:04:34;;;;;;;13.95;8.88;;;;;;;19.48;64.24;98553.84;5017761;28;20049;-74
2022/08/31 00:07:01;;;;;;;14.13;8.07;;;;;;;19.47;64.27;98552.19;5042221;28;20048;-81
2022/08/31 00:09:29;;;;;;;10.75;7.70;;;;;;;19.41;64.65;98550.25;5002988;28;20036;-79
2022/08/31 00:11:54;;;;;;;14.38;7.88;;;;;;;19.37;64.34;98547.09;5030648;28;20097;-77
2022/08/31 00:14:20;;;;;;;13.82;8.23;;;;;;;19.34;64.80;98547.47;5014239;28;20076;-76
2022/08/31 00:16:46;;;;;;;15.85;8.10;;;;;;;19.30;65.11;98550.78;5028655;28;20040;-75
2022/08/31 00:19:11;;;;;;;14.45;8.20;;;;;;;19.26;65.18;98550.31;5032517;28;20064;-76
2022/08/31 00:21:39;;;;;;;13.18;8.45;;;;;;;19.24;65.30;98555.06;5048243;28;20040;-77
2022/08/31 00:24:07;;;;;;;15.13;8.70;;;;;;;19.21;65.34;98575.19;5018178;28;20052;-77
2022/08/31 00:26:33;;;;;;;17.20;7.88;;;;;;;19.15;65.55;98543.53;5029538;28;20128;-79
2022/08/31 00:29:02;;;;;;;18.58;9.25;;;;;;;19.14;65.92;98560.78;5031576;28;20152;-78
2022/08/31 00:31:27;;;;;;;13.90;9.55;;;;;;;19.11;65.83;98557.59;5017040;28;20074;-77
2022/08/31 00:33:52;;;;;;;11.88;8.73;;;;;;;19.06;65.99;98549.25;5016240;28;20052;-79
2022/08/31 00:36:21;;;;;;;11.48;7.40;;;;;;;18.98;66.15;98554.75;5012703;28;20442;-76
2022/08/31 00:38:49;;;;;;;14.98;9.23;;;;;;;18.97;66.21;98562.00;5035020;28;20451;-81
2022/08/31 00:41:19;;;;;;;14.45;9.18;;;;;;;18.91;66.55;98538.47;5029453;28;20072;-78
2022/08/31 00:43:49;;;;;;;13.88;8.25;;;;;;;18.92;66.54;98558.22;4999451;28;20021;-79
2022/08/31 00:46:22;;;;;;;12.00;8.73;;;;;;;18.88;67.09;98541.53;5005211;28;20177;-75
2022/08/31 00:49:01;;;;;;;14.07;8.07;;;;;;;18.85;66.94;98544.63;5007953;28;20051;-70
2022/08/31 00:51:28;;;;;;;13.90;10.32;;;;;;;18.79;66.91;98534.59;5015552;28;20053;-72
2022/08/31 00:53:53;;;;;;;12.23;7.55;;;;;;;18.78;66.57;98541.84;4991687;28;20033;-74
2022/08/31 00:56:19;;;;;;;9.00;7.05;;;;;;;18.76;67.03;98540.34;5032716;28;20661;-69
2022/08/31 00:58:45;;;;;;;12.52;7.75;;;;;;;18.75;66.84;98534.13;5024378;28;20521;-73
2022/08/31 01:01:11;;;;;;;11.52;6.90;;;;;;;18.72;67.49;98536.38;5039653;28;20159;-76
2022/08/31 01:03:36;;;;;;;13.52;8.23;;;;;;;18.70;67.57;98535.72;5040801;28;20040;-75
2022/08/31 01:06:02;;;;;;;14.60;8.35;;;;;;;18.71;67.71;98534.69;5020007;28;20074;-74
2022/08/31 01:08:27;;;;;;;10.82;7.72;;;;;;;18.68;67.87;98540.47;5018662;28;20040;-71
2022/08/31 01:10:52;;;;;;;15.15;8.68;;;;;;;18.63;68.66;98538.31;5001748;28;20059;-70
2022/08/31 01:13:19;;;;;;;18.15;9.57;;;;;;;18.61;68.80;98532.28;5018301;28;20048;-72
2022/08/31 01:15:49;;;;;;;13.48;8.35;;;;;;;18.62;69.46;98533.13;5034771;28;20956;-71
2022/08/31 01:18:15;;;;;;;11.93;7.88;;;;;;;18.56;69.37;98536.53;5037354;28;20048;-73
2022/08/31 01:20:45;;;;;;;14.68;8.30;;;;;;;18.54;69.45;98527.78;5030405;28;20047;-70
2022/08/31 01:23:37;;;;;;;11.23;8.27;;;;;;;18.59;69.63;98530.81;5023563;28;20051;-72
2022/08/31 01:26:05;;;;;;;15.77;9.45;;;;;;;18.47;69.69;98528.53;5012357;28;20053;-75
2022/08/31 01:28:29;;;;;;;14.13;8.30;;;;;;;18.45;69.85;98530.59;5019405;28;20263;-71
2022/08/31 01:31:19;;;;;;;14.77;8.05;;;;;;;18.49;70.06;98531.06;5019141;28;20068;-70
2022/08/31 01:33:44;;;;;;;16.88;8.52;;;;;;;18.44;70.04;98528.06;4985783;28;20062;-71
2022/08/31 01:36:10;;;;;;;14.48;8.30;;;;;;;18.42;69.83;98535.50;5018886;28;20044;-69
2022/08/31 01:38:35;;;;;;;13.93;8.30;;;;;;;18.39;70.56;98525.94;5018781;28;20396;-71
2022/08/31 01:41:02;;;;;;;10.73;8.10;;;;;;;18.38;70.22;98534.22;5036904;28;20427;-68
2022/08/31 01:43:29;;;;;;;12.20;8.52;;;;;;;18.37;70.07;98524.44;5019132;28;20071;-70
2022/08/31 01:45:54;;;;;;;11.27;7.78;;;;;;;18.34;70.24;98517.56;4985637;28;20040;-78
2022/08/31 01:48:20;;;;;;;14.30;8.73;;;;;;;18.35;70.55;98524.63;5019461;28;20045;-68
2022/08/31 01:50:45;;;;;;;13.68;9.25;;;;;;;18.33;70.63;98517.75;5002362;28;20047;-69
2022/08/31 01:53:11;;;;;;;15.38;8.18;;;;;;;18.33;70.38;98521.28;5005333;28;20075;-73
2022/08/31 01:55:36;;;;;;;15.18;8.73;;;;;;;18.30;70.47;98516.25;5032608;28;20098;-74
2022/08/31 01:58:01;;;;;;;10.65;7.68;;;;;;;18.28;70.56;98510.22;5031852;28;20036;-73
2022/08/31 02:00:52;;;;;;;10.90;8.25;;;;;;;18.23;70.78;98515.31;4995652;28;20058;-73
2022/08/31 02:03:17;;;;;;;14.10;8.27;;;;;;;18.24;71.08;98522.41;4979079;28;20041;-74
2022/08/31 02:05:42;;;;;;;16.80;9.07;;;;;;;18.24;70.83;98513.47;4986391;28;20045;-75
2022/08/31 02:08:09;;;;;;;14.88;8.25;;;;;;;18.23;70.55;98520.72;4980580;28;20436;-73
2022/08/31 02:10:34;;;;;;;14.15;7.55;;;;;;;18.25;70.67;98512.44;4978277;28;20044;-74
2022/08/31 02:12:59;;;;;;;14.32;7.93;;;;;;;18.21;71.04;98506.56;4977667;28;20057;-73
2022/08/31 02:15:34;;;;;;;15.20;8.35;;;;;;;18.22;70.51;98512.81;4975955;28;20504;-73
2022/08/31 02:17:59;;;;;;;10.85;7.53;;;;;;;18.17;70.62;98510.69;4974919;28;20532;-70
2022/08/31 02:20:24;;;;;;;11.20;8.00;;;;;;;18.11;70.79;98511.41;4962685;28;20046;-71
2022/08/31 02:22:49;;;;;;;11.60;7.68;;;;;;;18.08;71.00;98512.59;4977405;28;20054;-70
2022/08/31 02:25:15;;;;;;;13.68;7.78;;;;;;;18.05;71.45;98504.91;4975555;28;20088;-69
2022/08/31 02:27:40;;;;;;;12.52;7.97;;;;;;;18.02;70.99;98504.44;4976133;28;20069;-71
2022/08/31 02:30:10;;;;;;;13.20;7.97;;;;;;;18.02;71.31;98505.28;4959914;28;20033;-70
2022/08/31 02:32:35;;;;;;;12.73;8.25;;;;;;;17.91;71.67;98502.19;4976671;28;20455;-70
2022/08/31 02:35:00;;;;;;;11.75;7.20;;;;;;;17.92;71.65;98503.88;4976314;28;20103;-71
2022/08/31 02:37:25;;;;;;;10.85;7.00;;;;;;;17.88;71.48;98498.00;4998661;28;20047;-71
2022/08/31 02:39:52;;;;;;;14.80;8.30;;;;;;;17.87;71.64;98506.25;5012251;28;20039;-70
2022/08/31 02:42:18;;;;;;;13.63;8.68;;;;;;;17.87;71.39;98501.72;5040588;28;20055;-70
2022/08/31 02:44:43;;;;;;;15.30;8.23;;;;;;;17.87;71.57;98504.41;5010555;28;20020;-70
2022/08/31 02:47:08;;;;;;;10.27;7.38;;;;;;;17.87;71.38;98493.63;5036351;28;20051;-71
2022/08/31 02:49:53;;;;;;;12.38;8.38;;;;;;;17.88;71.11;98503.38;5045930;28;20048;-71
2022/08/31 02:52:17;;;;;;;12.82;7.63;;;;;;;17.86;71.53;98496.50;5018646;28;20044;-71
2022/08/31 02:54:42;;;;;;;14.82;7.97;;;;;;;17.86;70.99;98496.50;5017730;28;20044;-70
2022/08/31 02:57:07;;;;;;;9.68;7.47;;;;;;;17.87;71.07;98495.47;5001665;28;20055;-70
2022/08/31 02:59:32;;;;;;;13.68;8.38;;;;;;;17.87;71.20;98488.22;5002196;28;20048;-70
2022/08/31 03:01:57;;;;;;;19.92;11.25;;;;;;;17.93;71.28;98489.38;5001956;28;20040;-70
2022/08/31 03:04:22;;;;;;;13.20;8.07;;;;;;;17.95;71.01;98490.84;5018565;28;20410;-69
2022/08/31 03:06:47;;;;;;;14.40;8.32;;;;;;;17.98;70.88;98493.16;5017953;28;20487;-72
2022/08/31 03:09:12;;;;;;;12.77;7.18;;;;;;;18.03;70.45;98487.22;5017700;28;20410;-71
2022/08/31 03:11:37;;;;;;;16.90;8.25;;;;;;;18.09;70.53;98490.00;5001124;28;20054;-71
2022/08/31 03:14:02;;;;;;;11.90;7.22;;;;;;;18.22;70.18;98497.47;5017620;28;20041;-71
2022/08/31 03:16:27;;;;;;;12.55;7.25;;;;;;;18.35;69.69;98492.25;5017188;28;20059;-68
2022/08/31 03:18:52;;;;;;;14.75;7.35;;;;;;;18.46;69.07;98477.44;5018096;28;20510;-74
2022/08/31 03:21:17;;;;;;;10.13;7.32;;;;;;;18.59;68.76;98482.22;5001460;28;20541;-73
2022/08/31 03:23:42;;;;;;;13.00;7.82;;;;;;;18.69;67.92;98482.75;5000920;28;20048;-71
2022/08/31 03:26:07;;;;;;;12.10;8.95;;;;;;;18.83;67.78;98484.59;5017517;28;20101;-71
2022/08/31 03:28:34;;;;;;;9.57;6.70;;;;;;;18.92;67.13;98482.59;5017819;28;20040;-71
2022/08/31 03:31:23;;;;;;;10.73;6.65;;;;;;;19.04;66.76;98490.00;5030035;28;20056;-71
2022/08/31 03:33:50;;;;;;;13.00;7.35;;;;;;;19.06;66.34;98487.97;5017295;28;20051;-71
2022/08/31 03:36:15;;;;;;;10.60;7.10;;;;;;;19.12;66.35;98486.34;5001020;28;20044;-70
2022/08/31 03:38:41;;;;;;;11.35;7.25;;;;;;;19.13;65.98;98488.03;5039629;28;20511;-70
2022/08/31 03:41:06;;;;;;;13.13;8.25;;;;;;;19.22;65.78;98490.41;5008162;28;20040;-71
2022/08/31 03:43:33;;;;;;;13.13;7.95;;;;;;;19.29;65.74;98484.25;5024447;28;20135;-69
2022/08/31 03:45:58;;;;;;;10.25;7.15;;;;;;;19.36;65.56;98485.13;5038121;28;20091;-69
2022/08/31 03:48:23;;;;;;;15.50;7.03;;;;;;;19.43;65.23;98486.00;5020124;28;20045;-69
2022/08/31 03:50:48;;;;;;;13.93;7.60;;;;;;;19.51;64.73;98477.81;4988913;28;20044;-70
2022/08/31 03:53:22;;;;;;;9.10;6.95;;;;;;;19.62;64.26;98487.28;5002317;28;20036;-70
2022/08/31 03:55:49;;;;;;;15.70;7.53;;;;;;;19.61;64.30;98491.84;5018500;28;20526;-70
2022/08/31 03:58:14;;;;;;;10.95;6.45;;;;;;;19.66;64.20;98475.84;5018030;28;20507;-71
2022/08/31 04:00:43;;;;;;;14.90;6.85;;;;;;;19.73;63.75;98476.75;5018081;28;20048;-70
2022/08/31 04:03:20;;;;;;;14.82;7.53;;;;;;;19.83;63.50;98477.25;5001342;28;20076;-70
2022/08/31 04:06:09;;;;;;;9.70;6.18;;;;;;;19.99;63.00;98477.97;5017723;28;20094;-69
2022/08/31 04:08:54;;;;;;;9.93;6.68;;;;;;;20.11;62.43;98479.09;5035490;28;20451;-72
2022/08/31 04:11:43;;;;;;;10.63;7.30;;;;;;;20.21;61.98;98476.84;4972837;28;20057;-69
2022/08/31 04:14:27;;;;;;;10.18;6.07;;;;;;;20.30;61.61;98472.97;4973002;28;20061;-68
2022/08/31 04:17:11;;;;;;;10.32;7.30;;;;;;;20.33;61.01;98471.72;4972853;28;20058;-70
2022/08/31 04:19:42;;;;;;;10.73;6.47;;;;;;;20.44;60.86;98466.59;4973360;28;20046;-68
2022/08/31 04:22:23;;;;;;;15.98;7.40;;;;;;;20.55;60.61;98471.44;4956677;28;20132;-69
2022/08/31 04:25:10;;;;;;;12.40;7.25;;;;;;;20.63;60.21;98468.59;4959626;28;20129;-71
2022/08/31 04:27:37;;;;;;;10.55;6.65;;;;;;;20.71;59.68;98466.72;4940459;28;20180;-68
2022/08/31 04:30:03;;;;;;;10.18;6.32;;;;;;;20.73;59.60;98470.06;4959433;28;20061;-69
2022/08/31 04:32:29;;;;;;;9.75;6.30;;;;;;;20.99;59.46;98468.25;4928588;28;20497;-70
2022/08/31 04:34:54;;;;;;;9.80;5.93;;;;;;;21.26;58.13;98463.78;4959880;28;20859;-69
2022/08/31 04:37:19;;;;;;;11.25;6.15;;;;;;;21.40;57.80;98469.22;4960302;28;20398;-69
2022/08/31 04:39:44;;;;;;;8.80;6.18;;;;;;;21.41;57.44;98476.31;4943862;28;20069;-70
2022/08/31 04:42:10;;;;;;;9.82;5.70;;;;;;;21.37;57.39;98492.97;4943652;28;20414;-70
2022/08/31 04:44:35;;;;;;;13.65;6.20;;;;;;;21.24;57.56;98479.41;4943758;28;20512;-69
2022/08/31 04:47:00;;;;;;;8.98;5.95;;;;;;;21.22;57.65;98484.19;4943885;28;20508;-69
2022/08/31 04:49:25;;;;;;;8.40;6.07;;;;;;;21.27;57.71;98487.13;5003921;28;20052;-69
2022/08/31 04:51:50;;;;;;;9.60;6.40;;;;;;;21.32;57.44;98484.66;5003404;28;20094;-69
2022/08/31 04:54:15;;;;;;;7.95;6.28;;;;;;;21.25;57.33;98485.66;5001991;28;20499;-68
2022/08/31 04:56:43;;;;;;;11.57;6.38;;;;;;;21.32;57.58;98479.22;5001019;28;20053;-69
2022/08/31 04:59:14;;;;;;;8.60;5.63;;;;;;;21.39;57.51;98479.22;5010455;28;20052;-76
2022/08/31 05:01:57;;;;;;;12.35;6.60;;;;;;;21.42;57.43;98477.97;4987021;28;20064;-67
2022/08/31 05:04:28;;;;;;;9.68;5.75;;;;;;;21.33;57.46;98482.78;5006555;28;20041;-68
2022/08/31 05:06:53;;;;;;;9.85;6.10;;;;;;;21.23;57.57;98475.00;5008200;28;20041;-67
2022/08/31 05:09:21;;;;;;;11.15;6.53;;;;;;;21.18;57.92;98480.25;5026818;28;20045;-69
2022/08/31 05:11:50;;;;;;;10.50;6.40;;;;;;;21.08;58.37;98482.47;5001758;28;20048;-68
2022/08/31 05:14:15;;;;;;;11.70;6.32;;;;;;;21.00;58.59;98479.94;5000597;28;20470;-67
2022/08/31 05:16:44;;;;;;;13.38;6.55;;;;;;;20.87;58.82;98475.34;4983818;28;20448;-69
2022/08/31 05:19:10;;;;;;;8.70;6.60;;;;;;;20.76;59.25;98483.22;4999939;28;20474;-68
2022/08/31 05:21:38;;;;;;;13.20;6.88;;;;;;;20.63;59.57;98484.84;4983405;28;20621;-71
2022/08/31 05:24:08;;;;;;;8.82;6.60;;;;;;;20.63;60.01;98486.69;4983617;28;20036;-70
2022/08/31 05:26:35;;;;;;;10.00;6.57;;;;;;;20.59;59.74;98491.69;4967170;28;20033;-70
2022/08/31 05:29:03;;;;;;;11.75;6.32;;;;;;;20.55;60.13;98487.69;5017420;28;20048;-68
2022/08/31 05:31:29;;;;;;;14.35;6.38;;;;;;;20.49;60.39;98485.81;4983014;28;20045;-67
2022/08/31 05:33:57;;;;;;;12.85;6.50;;;;;;;20.42;60.32;98487.66;4983608;28;20411;-68
2022/08/31 05:36:33;;;;;;;9.25;5.80;;;;;;;20.28;60.54;98492.13;4982891;28;20045;-68
2022/08/31 05:38:59;;;;;;;9.07;6.10;;;;;;;20.18;60.85;98490.81;4999580;28;20068;-68
2022/08/31 05:41:24;;;;;;;14.45;6.80;;;;;;;20.02;61.31;98499.22;4999164;28;20037;-69
2022/08/31 05:43:49;;;;;;;8.43;6.25;;;;;;;19.88;61.77;98504.53;4984168;28;20144;-68
2022/08/31 05:46:15;;;;;;;15.30;6.60;;;;;;;19.84;61.67;98510.53;4984900;28;20072;-67
2022/08/31 05:48:40;;;;;;;7.68;5.68;;;;;;;19.80;61.88;98504.69;5018276;28;20488;-74
2022/08/31 05:51:15;;;;;;;10.23;6.35;;;;;;;19.76;62.07;98510.66;5002212;28;20051;-72
2022/08/31 05:53:41;;;;;;;13.05;6.63;;;;;;;19.63;62.14;98507.88;5002266;28;20048;-72
2022/08/31 05:56:10;;;;;;;8.32;6.53;;;;;;;19.56;62.22;98508.63;5017245;28;20051;-67
2022/08/31 05:58:40;;;;;;;25.42;9.18;;;;;;;19.55;62.50;98523.19;5039048;28;20044;-68
2022/08/31 06:01:15;;;;;;;11.50;6.90;;;;;;;19.64;62.36;98518.47;5018896;28;20049;-67
2022/08/31 06:04:01;;;;;;;8.52;6.10;;;;;;;19.61;61.76;98520.75;5029437;28;20494;-68
2022/08/31 06:06:27;;;;;;;13.80;6.60;;;;;;;19.60;61.84;98522.63;5019030;28;20118;-68
2022/08/31 06:08:52;;;;;;;7.25;5.32;;;;;;;19.56;61.90;98527.56;5019311;28;20778;-68
2022/08/31 06:11:20;;;;;;;12.63;6.28;;;;;;;19.54;62.16;98517.97;5018520;28;20411;-69
2022/08/31 06:13:49;;;;;;;11.55;6.68;;;;;;;19.47;62.22;98520.59;5002048;28;20040;-71
2022/08/31 06:16:16;;;;;;;7.82;5.00;;;;;;;19.49;61.95;98517.72;5002495;28;20048;-71
2022/08/31 06:18:48;;;;;;;14.48;7.00;;;;;;;19.65;61.38;98517.44;5018776;28;20041;-71
2022/08/31 06:21:14;;;;;;;9.07;5.70;;;;;;;19.83;60.57;98516.97;5001993;28;20562;-70
2022/08/31 06:23:43;;;;;;;8.93;5.97;;;;;;;20.14;59.88;98522.81;5018830;28;20081;-70
2022/08/31 06:26:12;;;;;;;6.82;5.32;;;;;;;20.53;58.52;98519.56;5001561;28;20040;-71
2022/08/31 06:28:39;;;;;;;6.35;4.93;;;;;;;20.90;56.15;98514.72;5035080;28;20074;-71
2022/08/31 06:31:10;;;;;;;8.15;4.95;;;;;;;21.24;55.50;98509.22;5001545;28;20082;-71
2022/08/31 06:33:35;;;;;;;9.27;5.22;;;;;;;21.31;55.39;98514.69;5017882;28;20823;-68
2022/08/31 06:36:16;;;;;;;13.52;5.20;;;;;;;21.37;55.22;98514.66;5019753;28;20049;-68
2022/08/31 06:38:54;;;;;;;9.43;5.13;;;;;;;21.31;55.13;98523.66;5018851;28;20059;-69
2022/08/31 06:41:39;;;;;;;8.50;5.30;;;;;;;21.15;55.49;98523.13;5021714;28;20131;-69
2022/08/31 06:44:30;;;;;;;12.20;5.85;;;;;;;21.01;56.00;98525.81;5039644;28;20063;-69
2022/08/31 06:47:15;;;;;;;12.48;5.15;;;;;;;21.00;55.64;98517.88;5020706;28;20056;-70
2022/08/31 06:49:40;;;;;;;9.25;5.30;;;;;;;20.94;55.54;98511.41;5018521;28;20098;-69
2022/08/31 06:52:05;;;;;;;8.15;4.60;;;;;;;20.92;55.78;98516.19;5017724;28;20051;-69
2022/08/31 06:54:31;;;;;;;8.93;5.22;;;;;;;21.05;55.51;98515.41;5001097;28;20044;-68
2022/08/31 06:57:15;;;;;;;15.48;5.28;;;;;;;21.14;55.05;98514.16;5036586;28;20036;-69
2022/08/31 06:59:58;;;;;;;14.20;4.85;;;;;;;21.06;54.41;98516.22;5037703;28;20082;-70
2022/08/31 07:02:52;;;;;;;9.60;4.30;;;;;;;20.92;55.04;98518.06;4975237;28;20081;-72
2022/08/31 07:05:17;;;;;;;5.90;4.57;;;;;;;20.89;54.92;98511.16;4977697;28;20053;-68
2022/08/31 07:07:42;;;;;;;9.65;4.80;;;;;;;21.58;54.02;98510.09;4977598;28;20101;-69
2022/08/31 07:10:09;;;;;;;8.63;4.65;;;;;;;22.61;51.38;98506.66;4980333;28;20120;-69
2022/08/31 07:12:35;;;;;;;8.77;4.25;;;;;;;23.32;49.45;98600.94;4974620;28;20152;-69
2022/08/31 07:15:00;;;;;;;5.93;4.47;;;;;;;23.68;47.89;98500.50;4973878;28;20138;-69
2022/08/31 07:17:25;;;;;;;6.80;4.10;;;;;;;23.87;47.57;98509.56;4973620;28;20073;-70
2022/08/31 07:19:50;;;;;;;11.25;4.80;;;;;;;23.87;47.30;98504.09;4973481;28;20080;-69
2022/08/31 07:22:17;;;;;;;7.60;4.53;;;;;;;23.66;47.51;98509.94;4957224;28;20100;-70
2022/08/31 07:24:44;;;;;;;5.18;4.32;;;;;;;23.47;48.00;98509.00;4957407;28;20412;-71
2022/08/31 07:27:15;;;;;;;8.70;4.38;;;;;;;23.10;48.45;98516.97;4957081;28;20413;-70
2022/08/31 07:29:50;;;;;;;5.90;4.20;;;;;;;22.72;49.25;98516.03;4973462;28;20100;-72
2022/08/31 07:32:16;;;;;;;12.32;4.88;;;;;;;22.33;50.27;98512.41;4973180;28;20057;-69
2022/08/31 07:34:42;;;;;;;6.80;5.05;;;;;;;22.00;50.83;98514.34;4973533;28;20053;-69
2022/08/31 07:43:09;;;;;;;8.43;5.25;;;;;;;20.99;53.80;98525.16;5001654;28;20164;-70
2022/08/31 07:45:36;;;;;;;6.68;4.65;;;;;;;20.82;54.51;98528.44;5018338;28;20036;-68
2022/08/31 07:48:02;;;;;;;7.45;4.28;;;;;;;20.70;54.87;98524.63;5001854;28;20051;-69
2022/08/31 07:50:43;;;;;;;6.35;3.83;;;;;;;20.62;55.03;98520.22;5017683;28;20032;-69
2022/08/31 07:53:17;;;;;;;5.57;3.72;;;;;;;20.58;55.56;98527.06;5003859;28;20093;-68
2022/08/31 07:55:46;;;;;;;7.20;3.58;;;;;;;20.57;55.69;98528.94;5000124;28;20045;-68
2022/08/31 07:58:50;;;;;;;10.52;3.78;;;;;;;20.56;55.68;98527.28;4956865;28;20528;-67
2022/08/31 08:01:17;;;;;;;4.18;3.58;;;;;;;20.56;55.71;98545.38;4973091;28;20042;-70
2022/08/31 08:03:43;;;;;;;8.55;4.25;;;;;;;20.53;56.31;98529.56;4959218;28;20050;-69
2022/08/31 08:06:28;;;;;;;8.05;3.53;;;;;;;20.63;56.01;98528.16;4977250;28;20045;-68
2022/08/31 08:09:27;;;;;;;3.58;3.28;;;;;;;20.86;55.43;98532.44;4941044;28;20408;-68
2022/08/31 08:12:05;;;;;;;6.57;3.85;;;;;;;20.94;55.15;98530.38;4961205;28;20042;-69
2022/08/31 08:14:53;;;;;;;6.57;3.45;;;;;;;21.09;54.90;98526.69;4959341;28;20521;-69
2022/08/31 08:17:41;;;;;;;11.93;4.55;;;;;;;21.18;54.52;98536.28;4916096;29;20059;-69
2022/08/31 08:20:08;;;;;;;4.32;3.65;;;;;;;21.16;54.78;98533.78;4904334;29;20959;-67
2022/08/31 08:22:38;;;;;;;8.95;3.70;;;;;;;21.24;54.69;98527.34;4905365;29;20142;-69
2022/08/31 08:25:23;;;;;;;15.80;3.55;;;;;;;21.28;54.28;98534.88;4880970;29;20096;-70
2022/08/31 08:28:00;;;;;;;3.88;3.45;;;;;;;21.48;53.88;98537.63;4883263;28;20056;-72
2022/08/31 08:30:30;;;;;;;5.95;3.60;;;;;;;21.64;53.56;98529.13;4894306;29;20493;-71
2022/08/31 08:33:00;;;;;;;4.28;3.17;;;;;;;21.78;53.12;98527.25;4886572;29;20123;-72
2022/08/31 08:35:29;;;;;;;11.55;3.83;;;;;;;21.84;52.61;98525.56;4870641;29;20062;-72
2022/08/31 08:37:54;;;;;;;10.23;3.67;;;;;;;21.97;52.43;98529.13;4884579;29;20126;-72
2022/08/31 08:40:31;;;;;;;5.18;3.30;;;;;;;22.15;52.35;98538.53;4884046;29;20062;-71
2022/08/31 08:42:58;;;;;;;7.57;3.50;;;;;;;22.17;51.87;98537.28;4884575;29;20392;-73
2022/08/31 08:45:24;;;;;;;6.65;3.83;;;;;;;22.18;52.11;98529.97;4874704;29;20044;-73
2022/08/31 08:47:53;;;;;;;8.27;3.50;;;;;;;22.12;51.62;98534.38;4902671;29;20054;-74
2022/08/31 08:50:18;;;;;;;5.85;3.60;;;;;;;22.34;51.55;98537.69;4902506;29;20407;-74
2022/08/31 08:52:45;;;;;;;6.47;3.38;;;;;;;22.71;50.34;98539.66;4902336;29;20042;-75
2022/08/31 08:55:17;;;;;;;7.22;3.95;;;;;;;23.02;49.70;98532.69;4929710;28;20107;-74
2022/08/31 08:57:45;;;;;;;3.45;3.15;;;;;;;23.36;49.02;98536.91;4941180;28;20061;-69
2022/08/31 09:00:23;;;;;;;4.30;3.10;;;;;;;23.98;46.93;98530.59;4956841;28;20576;-70
2022/08/31 09:03:06;;;;;;;11.73;3.80;;;;;;;24.57;46.08;98545.59;4993924;28;20487;-69
2022/08/31 09:06:32;;;;;;;3.25;2.92;;;;;;;24.92;44.74;98545.81;4975595;28;20276;-70
2022/08/31 09:09:28;;;;;;;4.20;3.33;;;;;;;24.77;45.74;98553.53;4882572;29;20202;-68
2022/08/31 09:12:11;;;;;;;7.43;3.78;;;;;;;24.67;45.53;98547.78;4898724;29;20063;-67
2022/08/31 09:14:48;;;;;;;10.40;3.83;;;;;;;24.36;45.85;98551.47;4882160;29;20051;-68
2022/08/31 09:17:36;;;;;;;6.38;3.47;;;;;;;23.86;46.77;98556.88;4883409;29;20051;-68
2022/08/31 09:20:03;;;;;;;13.20;3.70;;;;;;;23.52;47.73;98550.00;4866427;29;20109;-68
2022/08/31 09:22:34;;;;;;;12.88;3.47;;;;;;;23.20;49.29;98565.44;4898180;29;20070;-68
2022/08/31 09:25:02;;;;;;;6.15;2.95;;;;;;;22.72;50.54;98568.50;4867177;29;20066;-68
2022/08/31 09:28:06;;;;;;;5.00;3.30;;;;;;;22.32;52.78;98572.34;4861195;29;20127;-67
2022/08/31 09:30:31;;;;;;;3.38;2.95;;;;;;;21.86;54.50;98573.16;4845621;29;20583;-68
2022/08/31 09:32:56;;;;;;;5.93;3.40;;;;;;;21.59;55.54;98572.28;4851603;29;20048;-67
2022/08/31 09:35:28;;;;;;;7.20;3.28;;;;;;;21.79;55.51;98568.75;4879687;29;20060;-66
2022/08/31 09:38:01;;;;;;;4.65;3.40;;;;;;;22.09;54.39;98570.06;4879259;29;20052;-66
2022/08/31 09:40:35;;;;;;;3.60;3.30;;;;;;;22.54;53.65;98568.34;4904858;29;20090;-67
2022/08/31 09:43:07;;;;;;;3.35;3.05;;;;;;;23.04;51.99;98571.34;4930940;28;20058;-68
2022/08/31 09:45:35;;;;;;;4.50;3.33;;;;;;;23.76;50.50;98564.72;4944342;28;20046;-68
2022/08/31 09:48:00;;;;;;;7.15;3.55;;;;;;;24.62;48.15;98559.34;4939073;28;20105;-68
2022/08/31 09:50:43;;;;;;;6.20;3.58;;;;;;;25.27;46.26;98554.22;4938903;28;20605;-68
2022/08/31 09:56:12;;;;;;;5.45;3.47;;;;;;;25.89;44.52;98576.63;4910169;28;20133;-65
2022/08/31 09:58:37;;;;;;;7.57;3.63;;;;;;;25.70;43.90;98569.59;4903790;28;20042;-69
2022/08/31 10:01:12;;;;;;;3.17;2.75;;;;;;;25.47;43.96;98565.69;4926049;28;20043;-67
2022/08/31 10:03:37;;;;;;;3.50;2.92;;;;;;;25.05;44.05;98570.25;5028254;28;20040;-66
2022/08/31 10:06:03;;;;;;;5.22;2.55;;;;;;;24.71;44.36;98581.72;5018102;28;20041;-68
2022/08/31 10:08:54;;;;;;;4.95;2.58;;;;;;;25.60;43.54;98579.19;5018382;28;20130;-67
2022/08/31 10:11:20;;;;;;;5.00;3.05;;;;;;;26.01;42.16;98569.31;5018851;28;20101;-73
2022/08/31 10:13:59;;;;;;;2.95;2.63;;;;;;;25.97;42.46;98585.31;5002640;28;20051;-74
2022/08/31 10:16:30;;;;;;;4.55;3.05;;;;;;;25.70;42.53;98583.25;5050342;28;20044;-75
2022/08/31 10:19:06;;;;;;;3.10;2.85;;;;;;;25.41;43.49;98582.97;5031137;28;20052;-74
2022/08/31 10:21:52;;;;;;;7.45;3.55;;;;;;;25.40;43.83;98589.47;5047069;28;20055;-73
2022/08/31 10:24:36;;;;;;;4.72;2.80;;;;;;;25.32;43.39;98587.91;5026286;28;20553;-71
2022/08/31 10:27:07;;;;;;;5.60;2.50;;;;;;;25.52;42.78;98586.81;4985025;28;20093;-73
2022/08/31 10:29:55;;;;;;;4.90;2.85;;;;;;;25.73;42.68;98577.31;5036888;28;20048;-73
2022/08/31 10:32:46;;;;;;;3.22;2.92;;;;;;;25.78;42.65;98583.72;5036869;28;20053;-74
2022/08/31 10:35:39;;;;;;;9.32;3.10;;;;;;;25.74;42.46;98577.06;5018943;28;20101;-72
2022/08/31 10:38:24;;;;;;;3.80;3.03;;;;;;;25.53;42.60;98586.56;5000551;28;20445;-73
2022/08/31 10:41:15;;;;;;;6.82;3.83;;;;;;;25.43;43.08;98594.50;5027655;28;20036;-72
2022/08/31 10:43:47;;;;;;;9.48;3.45;;;;;;;24.80;44.07;98589.38;5008848;28;20106;-73
2022/08/31 10:46:14;;;;;;;5.55;3.58;;;;;;;24.53;45.44;98587.97;4995148;28;20403;-73
2022/08/31 10:48:53;;;;;;;7.35;3.50;;;;;;;24.55;45.67;98597.59;5027254;28;20365;-73
2022/08/31 10:51:30;;;;;;;5.00;3.55;;;;;;;24.72;45.71;98594.28;4989505;28;20045;-69
2022/08/31 10:54:03;;;;;;;4.90;3.58;;;;;;;24.65;45.95;98597.06;4989522;28;20033;-68
2022/08/31 10:56:40;;;;;;;6.95;3.60;;;;;;;24.33;47.33;98609.13;5024168;28;20128;-70
2022/08/31 10:59:23;;;;;;;8.05;3.30;;;;;;;23.92;48.86;98610.47;5044254;28;20488;-72
2022/08/31 11:02:09;;;;;;;4.78;3.40;;;;;;;23.45;51.41;98623.47;5018213;28;20052;-72
2022/08/31 11:05:03;;;;;;;6.60;3.20;;;;;;;23.26;52.80;98616.22;5056387;28;20042;-71
2022/08/31 11:07:33;;;;;;;3.80;3.50;;;;;;;23.45;51.67;98623.47;4958772;28;20096;-70
2022/08/31 11:10:07;;;;;;;4.65;3.22;;;;;;;23.76;50.88;98621.88;4945990;28;20054;-73
2022/08/31 11:12:41;;;;;;;5.78;3.60;;;;;;;23.94;50.36;98613.78;4985477;28;20057;-73
2022/08/31 11:15:21;;;;;;;4.50;3.33;;;;;;;24.09;49.27;98621.63;4979481;28;20172;-73
2022/08/31 11:17:51;;;;;;;6.38;3.53;;;;;;;24.20;48.08;98621.75;4976161;28;20124;-72
2022/08/31 11:20:39;;;;;;;3.13;2.72;;;;;;;24.25;47.53;98623.84;4976950;28;20088;-77
2022/08/31 11:23:30;;;;;;;3.20;2.83;;;;;;;24.04;47.96;98611.38;4975420;28;20045;-72
2022/08/31 11:26:15;;;;;;;3.13;2.60;;;;;;;24.08;48.50;98607.19;4976457;28;20152;-74
2022/08/31 11:28:53;;;;;;;3.70;3.20;;;;;;;24.19;48.15;98617.34;4976143;28;20049;-73
2022/08/31 11:31:23;;;;;;;4.20;2.17;;;;;;;24.14;47.33;98603.59;4959453;28;20208;-72
2022/08/31 11:33:56;;;;;;;4.07;2.13;;;;;;;24.27;46.95;98610.00;4958749;28;20128;-73
2022/08/31 11:36:39;;;;;;;3.10;2.63;;;;;;;24.39;46.02;98600.88;4976855;28;20077;-78
2022/08/31 11:39:34;;;;;;;6.05;2.30;;;;;;;24.35;46.26;98616.00;4958384;28;20058;-74
2022/08/31 11:42:21;;;;;;;3.38;2.75;;;;;;;24.20;45.99;98612.75;4958148;28;20069;-75
2022/08/31 11:45:04;;;;;;;5.25;2.85;;;;;;;24.12;45.91;98613.03;4906150;28;20046;-73
2022/08/31 11:47:29;;;;;;;3.80;2.50;;;;;;;23.85;46.66;98613.22;4938414;28;20050;-79
2022/08/31 11:50:03;;;;;;;2.97;2.65;;;;;;;23.60;47.14;98614.19;4924325;28;20051;-79
2022/08/31 11:52:42;;;;;;;2.88;2.17;;;;;;;23.36;47.69;98613.91;4923580;28;20496;-77
2022/08/31 11:55:44;;;;;;;5.47;2.65;;;;;;;23.09;47.92;98620.47;4937331;28;20155;-76
2022/08/31 11:58:15;;;;;;;2.63;2.17;;;;;;;22.77;48.11;98614.09;4935963;28;20050;-71
2022/08/31 12:00:56;;;;;;;7.55;2.38;;;;;;;22.62;47.20;98611.56;4937235;28;20938;-72
2022/08/31 12:03:49;;;;;;;3.58;2.67;;;;;;;22.36;46.67;98619.75;4938291;28;20097;-70